createdAt,value
2022-08-23T00:01:26.405Z,16.59
2022-08-23T00:03:58.146Z,16.51
2022-08-23T00:06:25.013Z,16.48
2022-08-23T00:08:52.797Z,16.51
2022-08-23T00:11:33.525Z,16.48
2022-08-23T00:14:05.761Z,16.39
2022-08-23T00:16:32.354Z,16.36
2022-08-23T00:18:59.461Z,16.35
2022-08-23T00:21:26.124Z,16.34
2022-08-23T00:23:52.700Z,16.35
2022-08-23T00:26:20.785Z,16.29
2022-08-23T00:28:49.788Z,16.26
2022-08-23T00:31:18.835Z,16.20
2022-08-23T00:33:46.142Z,16.17
2022-08-23T00:36:12.720Z,16.13
2022-08-23T00:38:39.466Z,16.17
2022-08-23T00:41:06.322Z,16.21
2022-08-23T00:43:58.256Z,16.25
2022-08-23T00:47:07.191Z,16.09
2022-08-23T00:49:36.067Z,15.88
2022-08-23T00:52:08.928Z,15.84
2022-08-23T00:54:37.880Z,15.83
2022-08-23T00:57:10.808Z,15.73
2022-08-23T00:59:37.654Z,15.68
2022-08-23T01:02:05.463Z,15.68
2022-08-23T01:04:37.893Z,15.80
2022-08-23T01:07:09.190Z,15.81
2022-08-23T01:09:38.020Z,16.00
2022-08-23T01:12:16.065Z,16.08
2022-08-23T01:14:54.258Z,16.16
2022-08-23T01:17:30.082Z,16.21
2022-08-23T01:20:03.845Z,16.27
2022-08-23T01:22:41.425Z,16.21
2022-08-23T01:25:11.549Z,16.19
2022-08-23T01:27:39.613Z,16.22
2022-08-23T01:30:09.983Z,16.06
2022-08-23T01:32:44.457Z,15.87
2022-08-23T01:35:11.553Z,15.78
2022-08-23T01:37:38.617Z,15.68
2022-08-23T01:40:06.339Z,15.51
2022-08-23T01:42:32.975Z,15.43
2022-08-23T01:44:59.681Z,15.42
2022-08-23T01:47:26.235Z,15.38
2022-08-23T01:49:52.963Z,15.30
2022-08-23T01:52:19.651Z,15.24
2022-08-23T01:54:46.673Z,15.13
2022-08-23T01:57:13.508Z,15.12
2022-08-23T01:59:40.225Z,15.14
2022-08-23T02:02:06.829Z,15.12
2022-08-23T02:04:33.459Z,15.08
2022-08-23T02:07:00.041Z,15.04
2022-08-23T02:09:26.625Z,15.00
2022-08-23T02:11:54.893Z,14.84
2022-08-23T02:14:21.800Z,14.73
2022-08-23T02:17:03.905Z,14.64
2022-08-23T02:19:35.632Z,14.62
2022-08-23T02:22:03.570Z,14.55
2022-08-23T02:24:31.524Z,14.55
2022-08-23T02:27:02.271Z,14.52
2022-08-23T02:29:29.945Z,14.41
2022-08-23T02:31:58.876Z,14.26
2022-08-23T02:34:36.686Z,14.13
2022-08-23T02:37:03.669Z,14.08
2022-08-23T02:39:30.495Z,14.07
2022-08-23T02:41:57.786Z,13.93
2022-08-23T02:44:24.673Z,13.89
2022-08-23T02:46:51.441Z,13.89
2022-08-23T02:49:18.301Z,13.87
2022-08-23T02:51:45.245Z,13.89
2022-08-23T02:54:12.080Z,13.85
2022-08-23T02:56:39.051Z,13.89
2022-08-23T02:59:06.856Z,13.92
2022-08-23T03:01:38.127Z,13.96
2022-08-23T03:04:07.779Z,13.90
2022-08-23T03:06:34.448Z,13.82
2022-08-23T03:09:01.528Z,13.75
2022-08-23T03:11:28.518Z,13.72
2022-08-23T03:13:56.521Z,13.75
2022-08-23T03:16:24.796Z,13.70
2022-08-23T03:18:52.365Z,13.62
2022-08-23T03:21:20.646Z,13.56
2022-08-23T03:23:47.327Z,13.60
2022-08-23T03:26:14.819Z,13.58
2022-08-23T03:28:44.095Z,13.55
2022-08-23T03:31:12.482Z,13.51
2022-08-23T03:33:39.505Z,13.47
2022-08-23T03:36:08.031Z,13.47
2022-08-23T03:38:36.301Z,13.37
2022-08-23T03:41:03.077Z,13.36
2022-08-23T03:43:29.904Z,13.31
2022-08-23T03:45:57.160Z,13.36
2022-08-23T03:48:25.046Z,13.35
2022-08-23T03:50:54.580Z,13.35
2022-08-23T03:53:23.839Z,13.36
2022-08-23T03:55:52.133Z,13.34
2022-08-23T03:58:21.706Z,13.29
2022-08-23T04:00:48.908Z,13.25
2022-08-23T04:03:15.497Z,13.15
2022-08-23T04:05:42.272Z,13.14
2022-08-23T04:08:11.272Z,13.08
2022-08-23T04:10:39.407Z,13.05
2022-08-23T04:13:07.238Z,13.02
2022-08-23T04:15:33.827Z,12.99
2022-08-23T04:18:00.994Z,12.92
2022-08-23T04:20:28.925Z,12.91
2022-08-23T04:22:56.490Z,12.96
2022-08-23T04:25:34.802Z,12.96
2022-08-23T04:28:02.548Z,12.96
2022-08-23T04:30:29.863Z,13.02
2022-08-23T04:32:57.463Z,13.00
2022-08-23T04:35:25.679Z,13.07
2022-08-23T04:37:53.016Z,13.05
2022-08-23T04:40:38.006Z,13.13
2022-08-23T04:43:04.881Z,13.21
2022-08-23T04:45:32.607Z,13.26
2022-08-23T04:47:59.498Z,13.34
2022-08-23T04:50:26.202Z,13.41
2022-08-23T04:52:53.177Z,13.46
2022-08-23T04:55:20.317Z,13.42
2022-08-23T04:57:46.823Z,13.46
2022-08-23T05:00:14.747Z,13.53
2022-08-23T05:02:41.494Z,13.64
2022-08-23T05:05:11.323Z,13.75
2022-08-23T05:07:42.505Z,13.86
2022-08-23T05:10:13.055Z,14.10
2022-08-23T05:12:40.237Z,14.32
2022-08-23T05:15:09.311Z,14.51
2022-08-23T05:17:36.807Z,14.71
2022-08-23T05:20:05.158Z,14.93
2022-08-23T05:22:38.941Z,15.10
2022-08-23T05:25:06.242Z,15.22
2022-08-23T05:27:33.363Z,15.41
2022-08-23T05:29:59.940Z,15.59
2022-08-23T05:32:27.699Z,15.74
2022-08-23T05:34:57.068Z,15.95
2022-08-23T05:37:23.695Z,16.18
2022-08-23T05:39:50.361Z,16.28
2022-08-23T05:42:17.431Z,16.50
2022-08-23T05:44:44.422Z,16.77
2022-08-23T05:47:15.138Z,17.07
2022-08-23T05:49:42.728Z,17.47
2022-08-23T05:52:12.750Z,17.82
2022-08-23T05:54:39.672Z,18.30
2022-08-23T05:57:06.659Z,18.62
2022-08-23T05:59:33.448Z,18.85
2022-08-23T06:02:00.029Z,19.08
2022-08-23T06:04:26.577Z,19.30
2022-08-23T06:06:54.014Z,19.53
2022-08-23T06:09:20.723Z,19.72
2022-08-23T06:11:48.575Z,19.96
2022-08-23T06:14:16.206Z,20.20
2022-08-23T06:16:46.486Z,20.37
2022-08-23T06:19:14.472Z,20.60
2022-08-23T06:21:42.072Z,20.94
2022-08-23T06:24:08.766Z,20.96
2022-08-23T06:26:41.452Z,20.83
2022-08-23T06:29:14.392Z,21.13
2022-08-23T06:31:47.061Z,21.41
2022-08-23T06:34:26.749Z,21.61
2022-08-23T06:36:59.132Z,21.89
2022-08-23T06:39:29.883Z,22.05
2022-08-23T06:42:34.899Z,21.92
2022-08-23T06:44:58.845Z,21.94
2022-08-23T06:47:25.392Z,21.96
2022-08-23T06:49:57.817Z,22.19
2022-08-23T06:52:27.676Z,22.77
2022-08-23T06:54:54.630Z,22.92
2022-08-23T06:57:21.254Z,23.28
2022-08-23T06:59:50.165Z,23.49
2022-08-23T07:02:17.207Z,23.45
2022-08-23T07:04:43.994Z,23.62
2022-08-23T07:07:12.188Z,24.08
2022-08-23T07:09:39.967Z,24.30
2022-08-23T07:12:06.746Z,24.33
2022-08-23T07:14:33.404Z,24.02
2022-08-23T07:17:01.530Z,24.14
2022-08-23T07:19:30.722Z,24.40
2022-08-23T07:21:58.461Z,25.02
2022-08-23T07:24:29.336Z,25.00
2022-08-23T07:26:59.292Z,25.03
2022-08-23T07:29:25.873Z,24.88
2022-08-23T07:31:55.953Z,24.66
2022-08-23T07:34:23.680Z,24.87
2022-08-23T07:36:51.686Z,25.63
2022-08-23T07:39:19.924Z,25.40
2022-08-23T07:41:47.087Z,25.84
2022-08-23T07:44:18.168Z,26.37
2022-08-23T07:46:46.703Z,26.81
2022-08-23T07:49:14.279Z,26.94
2022-08-23T07:51:45.546Z,26.69
2022-08-23T07:54:13.083Z,26.66
2022-08-23T07:56:40.207Z,26.68
2022-08-23T07:59:08.158Z,26.67
2022-08-23T08:01:35.265Z,26.64
2022-08-23T08:04:04.327Z,26.88
2022-08-23T08:06:36.526Z,26.97
2022-08-23T08:09:06.114Z,27.34
2022-08-23T08:11:35.442Z,26.92
2022-08-23T08:14:07.711Z,27.12
2022-08-23T08:16:44.079Z,27.41
2022-08-23T08:19:12.577Z,27.29
2022-08-23T08:21:42.465Z,26.98
2022-08-23T08:24:12.864Z,27.39
2022-08-23T08:26:40.857Z,27.28
2022-08-23T08:29:11.343Z,27.49
2022-08-23T08:31:39.595Z,27.48
2022-08-23T08:34:07.941Z,27.54
2022-08-23T08:36:41.414Z,27.35
2022-08-23T08:39:12.298Z,27.01
2022-08-23T08:41:57.456Z,26.67
2022-08-23T08:44:37.664Z,27.29
2022-08-23T08:47:25.800Z,27.87
2022-08-23T08:50:15.898Z,27.71
2022-08-23T08:52:48.115Z,28.11
2022-08-23T08:55:24.170Z,28.34
2022-08-23T08:57:52.261Z,28.87
2022-08-23T09:00:23.445Z,28.65
2022-08-23T09:02:51.153Z,28.65
2022-08-23T09:05:31.897Z,28.43
2022-08-23T09:08:34.451Z,28.34
2022-08-23T09:11:47.220Z,28.74
2022-08-23T09:14:27.350Z,29.18
2022-08-23T09:17:07.464Z,28.83
2022-08-23T09:19:38.160Z,28.38
2022-08-23T09:22:11.146Z,28.91
2022-08-23T09:24:37.708Z,29.04
2022-08-23T09:27:04.472Z,28.86
2022-08-23T09:29:33.182Z,28.42
2022-08-23T09:32:06.662Z,28.31
2022-08-23T09:34:35.990Z,28.06
2022-08-23T09:37:09.822Z,27.26
2022-08-23T09:39:39.327Z,27.25
2022-08-23T09:42:26.963Z,28.25
2022-08-23T09:44:54.506Z,28.80
2022-08-23T09:47:30.342Z,29.15
2022-08-23T09:50:06.994Z,29.27
2022-08-23T09:52:37.774Z,29.63
2022-08-23T09:55:35.400Z,29.97
2022-08-23T09:58:15.921Z,28.72
2022-08-23T10:00:43.149Z,29.17
2022-08-23T10:03:27.056Z,29.63
2022-08-23T10:05:56.493Z,29.80
2022-08-23T10:08:32.976Z,30.30
2022-08-23T10:11:12.270Z,30.64
2022-08-23T10:13:43.037Z,30.47
2022-08-23T10:16:26.277Z,30.21
2022-08-23T10:19:18.194Z,29.76
2022-08-23T10:22:01.255Z,29.21
2022-08-23T10:25:02.549Z,29.46
2022-08-23T10:28:19.323Z,29.40
2022-08-23T10:31:06.306Z,29.63
2022-08-23T10:34:00.420Z,30.70
2022-08-23T10:36:33.847Z,30.61
2022-08-23T10:39:18.895Z,30.59
2022-08-23T10:42:19.978Z,30.92
2022-08-23T10:44:53.987Z,30.48
2022-08-23T10:47:37.294Z,30.39
2022-08-23T10:50:08.025Z,30.86
2022-08-23T10:52:45.298Z,30.56
2022-08-23T10:55:35.198Z,30.38
2022-08-23T10:58:05.493Z,30.53
2022-08-23T11:00:34.469Z,30.72
2022-08-23T11:03:32.353Z,30.85
2022-08-23T11:06:32.018Z,30.86
2022-08-23T11:09:28.149Z,31.09
2022-08-23T11:12:14.151Z,31.47
2022-08-23T11:14:47.016Z,30.78
2022-08-23T11:17:35.437Z,30.86
2022-08-23T11:20:08.728Z,30.60
2022-08-23T11:22:57.894Z,30.85
2022-08-23T11:25:24.340Z,30.84
2022-08-23T11:27:50.946Z,30.90
2022-08-23T11:30:32.885Z,31.25
2022-08-23T11:33:21.447Z,31.37
2022-08-23T11:35:50.187Z,31.21
2022-08-23T11:38:38.350Z,30.06
2022-08-23T11:41:19.941Z,30.45
2022-08-23T11:43:57.001Z,30.50
2022-08-23T11:46:24.229Z,30.96
2022-08-23T11:49:12.218Z,31.47
2022-08-23T11:51:44.807Z,30.94
2022-08-23T11:54:29.823Z,31.67
2022-08-23T11:57:28.483Z,31.74
2022-08-23T12:00:27.718Z,31.77
2022-08-23T12:03:05.817Z,31.95
2022-08-23T12:05:38.696Z,31.38
2022-08-23T12:08:05.903Z,31.84
2022-08-23T12:10:41.603Z,31.22
2022-08-23T12:13:19.989Z,31.57
2022-08-23T12:16:16.528Z,31.83
2022-08-23T12:18:49.827Z,31.98
2022-08-23T12:21:22.605Z,31.77
2022-08-23T12:23:52.764Z,31.35
2022-08-23T12:26:44.209Z,30.36
2022-08-23T12:29:33.701Z,30.17
2022-08-23T12:32:12.100Z,30.91
2022-08-23T12:34:55.014Z,31.05
2022-08-23T12:37:39.918Z,30.87
2022-08-23T12:40:15.696Z,31.03
2022-08-23T12:42:42.828Z,31.12
2022-08-23T12:45:17.353Z,30.93
2022-08-23T12:47:56.671Z,30.74
2022-08-23T12:50:55.115Z,30.51
2022-08-23T12:53:32.293Z,30.26
2022-08-23T12:56:08.850Z,30.65
2022-08-23T12:58:39.800Z,30.25
2022-08-23T13:01:17.406Z,30.65
2022-08-23T13:03:48.626Z,30.77
2022-08-23T13:06:21.813Z,30.15
2022-08-23T13:08:57.686Z,30.25
2022-08-23T13:11:27.568Z,29.76
2022-08-23T13:13:55.396Z,29.98
2022-08-23T13:16:36.079Z,29.76
2022-08-23T13:19:30.874Z,29.80
2022-08-23T13:22:19.012Z,30.42
2022-08-23T13:25:28.757Z,30.62
2022-08-23T13:28:00.797Z,30.31
2022-08-23T13:30:33.252Z,29.92
2022-08-23T13:33:07.832Z,29.86
2022-08-23T13:35:36.631Z,29.61
2022-08-23T13:38:21.324Z,29.85
2022-08-23T13:40:59.457Z,29.17
2022-08-23T13:43:27.858Z,29.39
2022-08-23T13:45:57.474Z,29.38
2022-08-23T13:48:34.646Z,29.34
2022-08-23T13:51:30.710Z,28.96
2022-08-23T13:53:59.675Z,28.95
2022-08-23T13:56:28.456Z,28.64
2022-08-23T13:59:18.065Z,28.79
2022-08-23T14:01:45.431Z,28.71
2022-08-23T14:04:12.036Z,28.67
2022-08-23T14:06:38.713Z,28.76
2022-08-23T14:09:06.749Z,28.84
2022-08-23T14:11:34.909Z,28.33
2022-08-23T14:14:01.988Z,28.24
2022-08-23T14:16:34.791Z,28.28
2022-08-23T14:20:31.495Z,28.05
2022-08-23T14:21:51.068Z,27.97
2022-08-23T14:24:20.154Z,27.91
2022-08-23T14:26:50.217Z,27.94
2022-08-23T14:29:21.569Z,27.60
2022-08-23T14:31:50.430Z,27.57
2022-08-23T14:34:17.086Z,27.63
2022-08-23T14:37:21.637Z,27.64
2022-08-23T14:39:30.813Z,27.76
2022-08-23T14:41:57.844Z,27.60
2022-08-23T14:44:25.670Z,27.66
2022-08-23T14:46:54.624Z,27.33
2022-08-23T14:49:22.063Z,27.29
2022-08-23T14:51:50.779Z,27.33
2022-08-23T14:54:21.572Z,27.20
2022-08-23T14:56:48.730Z,27.20
2022-08-23T14:59:15.841Z,27.28
2022-08-23T15:01:42.922Z,27.07
2022-08-23T15:04:10.077Z,27.00
2022-08-23T15:06:36.991Z,26.92
2022-08-23T15:09:04.305Z,26.92
2022-08-23T15:14:17.808Z,27.10
2022-08-23T15:16:44.615Z,27.22
2022-08-23T15:19:11.223Z,27.09
2022-08-23T15:21:37.777Z,26.86
2022-08-23T15:24:04.766Z,27.04
2022-08-23T15:26:32.108Z,26.78
2022-08-23T15:29:00.276Z,26.77
2022-08-23T15:31:27.848Z,26.81
2022-08-23T15:33:54.502Z,26.87
2022-08-23T15:36:21.147Z,26.72
2022-08-23T15:38:49.136Z,26.79
2022-08-23T15:41:19.811Z,26.84
2022-08-23T15:43:46.992Z,26.70
2022-08-23T15:46:21.754Z,26.68
2022-08-23T15:48:54.696Z,26.66
2022-08-23T15:51:21.727Z,26.60
2022-08-23T15:53:48.514Z,26.47
2022-08-23T15:56:21.035Z,26.32
2022-08-23T15:58:48.499Z,26.28
2022-08-23T16:01:15.197Z,26.37
2022-08-23T16:03:43.474Z,26.39
2022-08-23T16:06:12.821Z,26.26
2022-08-23T16:08:42.537Z,26.11
2022-08-23T16:11:12.883Z,26.09
2022-08-23T16:13:45.143Z,26.07
2022-08-23T16:16:23.336Z,25.98
2022-08-23T16:18:51.792Z,25.91
2022-08-23T16:21:18.402Z,25.90
2022-08-23T16:23:45.278Z,25.88
2022-08-23T16:26:22.353Z,25.95
2022-08-23T16:28:57.068Z,25.91
2022-08-23T16:31:39.005Z,25.87
2022-08-23T16:34:09.400Z,25.74
2022-08-23T16:36:36.325Z,25.76
2022-08-23T16:39:03.896Z,25.72
2022-08-23T16:41:30.415Z,25.77
2022-08-23T16:43:56.994Z,25.72
2022-08-23T16:46:24.665Z,25.67
2022-08-23T16:48:51.444Z,25.51
2022-08-23T16:51:18.318Z,25.42
2022-08-23T16:53:44.934Z,25.39
2022-08-23T16:56:29.857Z,25.49
2022-08-23T16:58:56.991Z,25.35
2022-08-23T17:01:23.784Z,25.35
2022-08-23T17:03:50.753Z,25.38
2022-08-23T17:06:18.353Z,25.29
2022-08-23T17:08:45.291Z,25.33
2022-08-23T17:11:15.765Z,25.25
2022-08-23T17:13:42.455Z,25.21
2022-08-23T17:16:10.843Z,25.08
2022-08-23T17:18:38.570Z,25.07
2022-08-23T17:21:05.911Z,25.06
2022-08-23T17:23:33.174Z,25.02
2022-08-23T17:26:06.107Z,25.00
2022-08-23T17:28:32.961Z,24.94
2022-08-23T17:30:59.597Z,25.00
2022-08-23T17:33:26.297Z,24.96
2022-08-23T17:35:53.111Z,24.84
2022-08-23T17:38:20.972Z,24.82
2022-08-23T17:40:48.245Z,24.82
2022-08-23T17:43:14.874Z,24.75
2022-08-23T17:45:45.609Z,24.60
2022-08-23T17:48:13.918Z,24.55
2022-08-23T17:50:43.587Z,24.58
2022-08-23T17:53:11.523Z,24.53
2022-08-23T17:55:39.462Z,24.42
2022-08-23T17:58:10.000Z,24.30
2022-08-23T18:00:39.061Z,24.25
2022-08-23T18:03:05.939Z,24.19
2022-08-23T18:05:33.946Z,24.18
2022-08-23T18:08:00.811Z,24.01
2022-08-23T18:10:27.557Z,23.76
2022-08-23T18:12:54.141Z,23.64
2022-08-23T18:15:20.739Z,23.53
2022-08-23T18:17:47.373Z,23.45
2022-08-23T18:20:14.159Z,23.40
2022-08-23T18:22:40.920Z,23.28
2022-08-23T18:25:10.074Z,23.27
2022-08-23T18:27:55.632Z,23.11
2022-08-23T18:30:22.228Z,23.15
2022-08-23T18:32:48.813Z,23.07
2022-08-23T18:35:15.614Z,22.95
2022-08-23T18:37:42.430Z,22.92
2022-08-23T18:40:10.481Z,22.80
2022-08-23T18:42:37.911Z,22.73
2022-08-23T18:45:06.082Z,22.60
2022-08-23T18:47:32.994Z,22.45
2022-08-23T18:49:59.571Z,22.46
2022-08-23T18:52:27.637Z,22.41
2022-08-23T18:54:57.731Z,22.26
2022-08-23T18:57:24.486Z,22.32
2022-08-23T18:59:51.512Z,22.28
2022-08-23T19:02:18.408Z,22.23
2022-08-23T19:04:46.265Z,22.20
2022-08-23T19:07:12.998Z,22.09
2022-08-23T19:09:39.595Z,21.96
2022-08-23T19:12:06.553Z,21.93
2022-08-23T19:14:35.712Z,21.75
2022-08-23T19:17:08.239Z,21.72
2022-08-23T19:19:35.898Z,21.62
2022-08-23T19:22:03.806Z,21.56
2022-08-23T19:24:30.801Z,21.61
2022-08-23T19:26:57.449Z,21.62
2022-08-23T19:29:24.128Z,21.53
2022-08-23T19:31:50.750Z,21.60
2022-08-23T19:34:19.728Z,21.60
2022-08-23T19:36:56.821Z,21.54
2022-08-23T19:39:27.833Z,21.52
2022-08-23T19:41:54.511Z,21.51
2022-08-23T19:44:21.420Z,21.47
2022-08-23T19:46:48.470Z,21.42
2022-08-23T19:49:15.744Z,21.43
2022-08-23T19:51:43.814Z,21.36
2022-08-23T19:54:12.898Z,21.19
2022-08-23T19:56:47.073Z,21.26
2022-08-23T19:59:19.611Z,21.22
2022-08-23T20:01:47.991Z,21.17
2022-08-23T20:04:16.286Z,21.21
2022-08-23T20:06:43.355Z,21.06
2022-08-23T20:09:10.126Z,21.03
2022-08-23T20:11:37.293Z,21.04
2022-08-23T20:14:05.435Z,21.09
2022-08-23T20:16:32.965Z,21.06
2022-08-23T20:19:00.288Z,20.99
2022-08-23T20:21:27.719Z,20.93
2022-08-23T20:24:04.424Z,20.86
2022-08-23T20:26:34.007Z,20.82
2022-08-23T20:29:05.567Z,20.78
2022-08-23T20:31:36.713Z,20.80
2022-08-23T20:34:05.895Z,20.80
2022-08-23T20:36:33.503Z,20.83
2022-08-23T20:39:01.566Z,20.72
2022-08-23T20:41:31.260Z,20.69
2022-08-23T20:43:58.931Z,20.69
2022-08-23T20:46:26.708Z,20.68
2022-08-23T20:48:54.044Z,20.70
2022-08-23T20:51:21.297Z,20.75
2022-08-23T20:53:48.064Z,20.58
2022-08-23T20:56:15.226Z,20.34
2022-08-23T20:58:42.414Z,20.02
2022-08-23T21:01:11.100Z,19.88
2022-08-23T21:03:39.006Z,19.73
2022-08-23T21:06:09.292Z,19.68
2022-08-23T21:08:42.528Z,19.54
2022-08-23T21:11:10.642Z,19.52
2022-08-23T21:13:41.406Z,19.49
2022-08-23T21:16:08.243Z,19.52
2022-08-23T21:18:34.965Z,19.54
2022-08-23T21:21:01.587Z,19.60
2022-08-23T21:23:28.189Z,19.57
2022-08-23T21:25:56.527Z,19.60
2022-08-23T21:28:24.314Z,19.68
2022-08-23T21:30:51.034Z,19.69
2022-08-23T21:33:18.225Z,19.62
2022-08-23T21:35:44.942Z,19.49
2022-08-23T21:38:11.664Z,19.46
2022-08-23T21:40:38.516Z,19.37
2022-08-23T21:43:05.374Z,19.44
2022-08-23T21:45:32.084Z,19.39
2022-08-23T21:47:58.820Z,19.32
2022-08-23T21:50:28.681Z,19.22
2022-08-23T21:53:03.833Z,19.18
2022-08-23T21:55:36.187Z,19.10
2022-08-23T21:58:04.119Z,19.03
2022-08-23T22:00:30.864Z,18.92
2022-08-23T22:02:57.592Z,18.89
2022-08-23T22:05:24.504Z,18.98
2022-08-23T22:07:52.020Z,18.99
2022-08-23T22:10:18.965Z,18.91
2022-08-23T22:12:45.530Z,18.86
2022-08-23T22:15:14.806Z,18.84
2022-08-23T22:17:41.366Z,18.81
2022-08-23T22:20:09.677Z,18.88
2022-08-23T22:22:37.278Z,18.93
2022-08-23T22:25:04.593Z,19.01
2022-08-23T22:27:32.864Z,19.02
2022-08-23T22:29:59.603Z,19.12
2022-08-23T22:32:26.780Z,19.00
2022-08-23T22:34:53.550Z,19.03
2022-08-23T22:37:20.248Z,19.13
2022-08-23T22:39:46.991Z,19.13
2022-08-23T22:42:13.947Z,19.09
2022-08-23T22:44:40.794Z,19.04
2022-08-23T22:47:07.640Z,19.05
2022-08-23T22:49:34.564Z,18.93
2022-08-23T22:52:01.152Z,18.97
2022-08-23T22:54:27.831Z,18.89
2022-08-23T22:56:54.730Z,18.91
2022-08-23T22:59:25.858Z,18.83
2022-08-23T23:01:58.205Z,18.81
2022-08-23T23:04:26.737Z,18.73
2022-08-23T23:06:54.754Z,18.67
2022-08-23T23:09:21.508Z,18.61
2022-08-23T23:11:48.775Z,18.55
2022-08-23T23:14:17.484Z,18.53
2022-08-23T23:16:44.981Z,18.46
2022-08-23T23:19:30.607Z,18.45
2022-08-23T23:21:58.453Z,18.46
2022-08-23T23:24:31.250Z,18.38
2022-08-23T23:26:59.228Z,18.25
2022-08-23T23:29:27.518Z,18.26
2022-08-23T23:31:55.649Z,18.29
2022-08-23T23:34:23.534Z,18.24
2022-08-23T23:36:50.128Z,18.20
2022-08-23T23:39:16.936Z,18.16
2022-08-23T23:41:43.636Z,18.08
2022-08-23T23:44:10.192Z,18.06
2022-08-23T23:46:36.959Z,18.12
2022-08-23T23:49:04.256Z,18.02
2022-08-23T23:51:31.609Z,18.03
2022-08-23T23:54:00.976Z,18.08
2022-08-23T23:56:29.376Z,18.12
2022-08-23T23:58:56.859Z,18.19
